Time;durP1;ratioP1;P1;durP2;ratioP2;P2;SDS_P1;SDS_P2;PMS_P1;PMS_P2;Temp;Humidity;BMP_temperature;BMP_pressure;BME280_temperature;BME280_humidity;BME280_pressure;Samples;Min_cycle;Max_cycle;Signal;HPM_P1;HPM_P2
2023/12/26 00:01:53;;;;;;;;;;;12.70;99.90;;;;;;7333768;19;109078;-73
2023/12/26 00:04:24;;;;;;;;;;;12.70;99.90;;;;;;7331794;19;129933;-71
2023/12/26 00:06:56;;;;;;;;;;;12.70;99.90;;;;;;7330525;19;108704;-73
2023/12/26 00:09:23;;;;;;;;;;;12.70;99.90;;;;;;7332984;19;108689;-72
2023/12/26 00:11:50;;;;;;;;;;;12.70;99.90;;;;;;7327485;19;109538;-72
2023/12/26 00:14:18;;;;;;;;;;;12.60;99.90;;;;;;7334093;19;109334;-72
2023/12/26 00:16:45;;;;;;;;;;;12.60;99.90;;;;;;7333303;19;109883;-72
2023/12/26 00:19:12;;;;;;;;;;;12.60;99.90;;;;;;7325445;19;109693;-73
2023/12/26 00:21:40;;;;;;;;;;;12.60;99.90;;;;;;7329119;19;108572;-73
2023/12/26 00:24:07;;;;;;;;;;;12.60;99.90;;;;;;7335048;19;109546;-73
2023/12/26 00:26:38;;;;;;;;;;;12.60;99.90;;;;;;7329671;19;110476;-73
2023/12/26 00:29:07;;;;;;;;;;;12.50;99.90;;;;;;7330753;19;109758;-74
2023/12/26 00:31:38;;;;;;;;;;;12.50;99.90;;;;;;7328646;19;110423;-73
2023/12/26 00:34:05;;;;;;;;;;;12.50;99.90;;;;;;7331834;19;108482;-73
2023/12/26 00:36:33;;;;;;;;;;;12.50;99.90;;;;;;7331607;19;108693;-78
2023/12/26 00:39:00;;;;;;;;;;;12.50;99.90;;;;;;7332194;19;110898;-75
2023/12/26 00:41:27;;;;;;;;;;;12.50;99.90;;;;;;7330377;19;110666;-74
2023/12/26 00:43:55;;;;;;;;;;;12.50;99.90;;;;;;7331645;19;109118;-75
2023/12/26 00:46:23;;;;;;;;;;;12.50;99.90;;;;;;7335359;19;109831;-77
2023/12/26 00:48:50;;;;;;;;;;;12.50;99.90;;;;;;7331959;19;114958;-73
2023/12/26 00:51:18;;;;;;;;;;;12.50;99.90;;;;;;7329597;19;110446;-75
2023/12/26 00:53:45;;;;;;;;;;;12.40;99.90;;;;;;7332422;19;108948;-75
2023/12/26 00:56:12;;;;;;;;;;;12.40;99.90;;;;;;7329402;19;108905;-74
2023/12/26 00:58:40;;;;;;;;;;;12.40;99.90;;;;;;7330113;19;109479;-74
2023/12/26 01:01:07;;;;;;;;;;;12.40;99.90;;;;;;7330139;19;108459;-73
2023/12/26 01:03:35;;;;;;;;;;;12.40;99.90;;;;;;7329522;19;112660;-74
2023/12/26 01:06:02;;;;;;;;;;;12.40;99.90;;;;;;7335550;19;109155;-74
2023/12/26 01:08:29;;;;;;;;;;;12.40;99.90;;;;;;7330548;19;109041;-74
2023/12/26 01:10:56;;;;;;;;;;;12.40;99.90;;;;;;7328411;19;109519;-73
2023/12/26 01:13:24;;;;;;;;;;;12.40;99.90;;;;;;7330528;19;110035;-73
2023/12/26 01:15:52;;;;;;;;;;;12.30;99.90;;;;;;7327200;19;109402;-73
2023/12/26 01:18:19;;;;;;;;;;;12.40;99.90;;;;;;7328783;19;110010;-73
2023/12/26 01:20:46;;;;;;;;;;;12.30;99.90;;;;;;7328335;19;109347;-73
2023/12/26 01:23:13;;;;;;;;;;;12.40;99.90;;;;;;7330942;19;110126;-73
2023/12/26 01:25:41;;;;;;;;;;;12.30;99.90;;;;;;7329082;19;109158;-73
2023/12/26 01:28:08;;;;;;;;;;;12.30;99.90;;;;;;7332610;19;108664;-72
2023/12/26 01:30:38;;;;;;;;;;;12.30;99.90;;;;;;7331996;19;110311;-73
2023/12/26 01:33:08;;;;;;;;;;;12.30;99.90;;;;;;7328318;19;108384;-73
2023/12/26 01:35:36;;;;;;;;;;;12.30;99.90;;;;;;7330011;19;109841;-76
2023/12/26 01:38:03;;;;;;;;;;;12.30;99.90;;;;;;7327929;19;110111;-78
2023/12/26 01:40:30;;;;;;;;;;;12.30;99.90;;;;;;7331238;19;109932;-80
2023/12/26 01:42:57;;;;;;;;;;;12.20;99.90;;;;;;7327042;19;110147;-74
2023/12/26 01:45:24;;;;;;;;;;;12.30;99.90;;;;;;7331647;19;109172;-75
2023/12/26 01:47:55;;;;;;;;;;;12.30;99.90;;;;;;7329355;19;109002;-73
2023/12/26 01:50:23;;;;;;;;;;;12.30;99.90;;;;;;7335813;19;109256;-74
2023/12/26 01:52:50;;;;;;;;;;;12.30;99.90;;;;;;7330763;19;108477;-74
2023/12/26 01:55:18;;;;;;;;;;;12.20;99.90;;;;;;7339481;19;108242;-73
2023/12/26 01:57:46;;;;;;;;;;;12.30;99.90;;;;;;7331712;19;109359;-75
2023/12/26 02:00:14;;;;;;;;;;;12.30;99.90;;;;;;7334789;19;109119;-73
2023/12/26 02:02:42;;;;;;;;;;;12.30;99.90;;;;;;7334406;19;109087;-74
2023/12/26 02:05:12;;;;;;;;;;;12.30;99.90;;;;;;7338777;19;109155;-74
2023/12/26 02:07:39;;;;;;;;;;;12.30;99.90;;;;;;7337429;19;110469;-74
2023/12/26 02:10:07;;;;;;;;;;;12.30;99.90;;;;;;7337134;19;109444;-74
2023/12/26 02:12:34;;;;;;;;;;;12.30;99.90;;;;;;7342000;19;109126;-74
2023/12/26 02:15:02;;;;;;;;;;;12.20;99.90;;;;;;7337666;19;109130;-74
2023/12/26 02:17:30;;;;;;;;;;;12.20;99.90;;;;;;7335501;19;109798;-75
2023/12/26 02:19:58;;;;;;;;;;;12.20;99.90;;;;;;7339261;19;108451;-74
2023/12/26 02:22:25;;;;;;;;;;;12.20;99.90;;;;;;7333945;19;109450;-74
2023/12/26 02:24:52;;;;;;;;;;;12.20;99.90;;;;;;7332884;19;110598;-75
2023/12/26 02:27:24;;;;;;;;;;;12.20;99.90;;;;;;7338754;19;108633;-74
2023/12/26 02:29:52;;;;;;;;;;;12.20;99.90;;;;;;7337840;19;109755;-74
2023/12/26 02:32:20;;;;;;;;;;;12.20;99.90;;;;;;7340575;19;110496;-73
2023/12/26 02:34:50;;;;;;;;;;;12.20;99.90;;;;;;7342253;19;110592;-73
2023/12/26 02:37:17;;;;;;;;;;;12.20;99.90;;;;;;7336723;19;109925;-74
2023/12/26 02:39:45;;;;;;;;;;;12.20;99.90;;;;;;7330749;19;109885;-73
2023/12/26 02:42:13;;;;;;;;;;;12.20;99.90;;;;;;7333926;19;110190;-74
2023/12/26 02:44:40;;;;;;;;;;;12.20;99.90;;;;;;7337348;19;110037;-73
2023/12/26 02:47:08;;;;;;;;;;;12.20;99.90;;;;;;7334390;19;109804;-74
2023/12/26 02:49:36;;;;;;;;;;;12.20;99.90;;;;;;7334027;19;109846;-74
2023/12/26 02:52:03;;;;;;;;;;;12.20;99.90;;;;;;7334156;19;109641;-73
2023/12/26 02:54:30;;;;;;;;;;;12.20;99.90;;;;;;7331185;19;109457;-74
2023/12/26 02:56:57;;;;;;;;;;;12.20;99.90;;;;;;7341836;19;108975;-73
2023/12/26 02:59:25;;;;;;;;;;;12.20;99.90;;;;;;7334323;19;110333;-73
2023/12/26 03:01:52;;;;;;;;;;;12.20;99.90;;;;;;7336085;19;110548;-74
2023/12/26 03:04:20;;;;;;;;;;;12.20;99.90;;;;;;7335092;19;109579;-74
2023/12/26 03:06:47;;;;;;;;;;;12.20;99.90;;;;;;7332716;19;109352;-74
2023/12/26 03:09:14;;;;;;;;;;;12.20;99.90;;;;;;7331043;19;109462;-74
2023/12/26 03:11:41;;;;;;;;;;;12.20;99.90;;;;;;7331794;19;110550;-74
2023/12/26 03:14:08;;;;;;;;;;;12.20;99.90;;;;;;7335854;19;108684;-74
2023/12/26 03:16:35;;;;;;;;;;;12.20;99.90;;;;;;7342447;19;110564;-74
2023/12/26 03:19:02;;;;;;;;;;;12.20;99.90;;;;;;7330755;19;108888;-74
2023/12/26 03:21:30;;;;;;;;;;;12.20;99.90;;;;;;7334057;19;111603;-74
2023/12/26 03:23:57;;;;;;;;;;;12.20;99.90;;;;;;7333055;19;110240;-74
2023/12/26 03:26:24;;;;;;;;;;;12.20;99.90;;;;;;7331298;19;110657;-74
2023/12/26 03:28:51;;;;;;;;;;;12.20;99.90;;;;;;7336938;19;109291;-74
2023/12/26 03:31:18;;;;;;;;;;;12.20;99.90;;;;;;7333036;19;110070;-74
2023/12/26 03:33:46;;;;;;;;;;;12.20;99.90;;;;;;7333689;19;108377;-74
2023/12/26 03:36:13;;;;;;;;;;;12.20;99.90;;;;;;7331243;19;108754;-75
2023/12/26 03:38:43;;;;;;;;;;;12.20;99.90;;;;;;7338878;19;110188;-74
2023/12/26 03:41:10;;;;;;;;;;;12.20;99.90;;;;;;7332265;19;109140;-74
2023/12/26 03:43:37;;;;;;;;;;;12.20;99.90;;;;;;7334598;19;109192;-74
2023/12/26 03:46:05;;;;;;;;;;;12.20;99.90;;;;;;7331905;19;111847;-74
2023/12/26 03:48:32;;;;;;;;;;;12.20;99.90;;;;;;7328925;19;111955;-74
2023/12/26 03:50:59;;;;;;;;;;;12.20;99.90;;;;;;7336195;19;109070;-74
2023/12/26 03:53:27;;;;;;;;;;;12.20;99.90;;;;;;7332333;19;110574;-74
2023/12/26 03:55:54;;;;;;;;;;;12.20;99.90;;;;;;7334736;19;108939;-73
2023/12/26 03:58:21;;;;;;;;;;;12.20;99.90;;;;;;7335786;19;109250;-74
2023/12/26 04:00:48;;;;;;;;;;;12.20;99.90;;;;;;7337663;19;108801;-74
2023/12/26 04:03:16;;;;;;;;;;;12.20;99.90;;;;;;7331006;19;111554;-74
2023/12/26 04:05:43;;;;;;;;;;;12.20;99.90;;;;;;7335667;19;108881;-74
2023/12/26 04:08:10;;;;;;;;;;;12.20;99.90;;;;;;7331148;19;108869;-73
2023/12/26 04:10:37;;;;;;;;;;;12.20;99.90;;;;;;7330915;19;110415;-74
2023/12/26 04:13:05;;;;;;;;;;;12.20;99.90;;;;;;7334843;19;109795;-74
2023/12/26 04:15:32;;;;;;;;;;;12.20;99.90;;;;;;7331280;19;109488;-74
2023/12/26 04:17:59;;;;;;;;;;;12.20;99.90;;;;;;7332669;19;109350;-74
2023/12/26 04:20:27;;;;;;;;;;;12.20;99.90;;;;;;7333569;19;109819;-76
2023/12/26 04:22:54;;;;;;;;;;;12.20;99.90;;;;;;7336895;19;108679;-74
2023/12/26 04:25:22;;;;;;;;;;;12.20;99.90;;;;;;7328075;19;108782;-73
2023/12/26 04:27:50;;;;;;;;;;;12.20;99.90;;;;;;7333449;19;109935;-73
2023/12/26 04:30:17;;;;;;;;;;;12.20;99.90;;;;;;7329775;19;110575;-74
2023/12/26 04:32:45;;;;;;;;;;;12.20;99.90;;;;;;7330909;19;109345;-73
2023/12/26 04:35:13;;;;;;;;;;;12.20;99.90;;;;;;7329406;19;109251;-74
2023/12/26 04:37:40;;;;;;;;;;;12.20;99.90;;;;;;7332190;19;110288;-74
2023/12/26 04:40:08;;;;;;;;;;;12.20;99.90;;;;;;7326799;19;110280;-73
2023/12/26 04:42:35;;;;;;;;;;;12.20;99.90;;;;;;7330444;19;113681;-73
2023/12/26 04:45:03;;;;;;;;;;;12.20;99.90;;;;;;7338066;19;109184;-73
2023/12/26 04:47:32;;;;;;;;;;;12.20;99.90;;;;;;7332944;19;109662;-73
2023/12/26 04:50:00;;;;;;;;;;;12.20;99.90;;;;;;7330069;19;109013;-73
2023/12/26 04:52:27;;;;;;;;;;;12.20;99.90;;;;;;7331803;19;108824;-73
2023/12/26 04:54:54;;;;;;;;;;;12.20;99.90;;;;;;7333082;19;109360;-73
2023/12/26 04:57:21;;;;;;;;;;;12.20;99.90;;;;;;7328808;19;110218;-73
2023/12/26 04:59:48;;;;;;;;;;;12.20;99.90;;;;;;7328994;19;108936;-73
2023/12/26 05:02:16;;;;;;;;;;;12.20;99.90;;;;;;7331693;19;110591;-73
2023/12/26 05:04:43;;;;;;;;;;;12.20;99.90;;;;;;7331477;19;110089;-73
2023/12/26 05:07:10;;;;;;;;;;;12.20;99.90;;;;;;7335896;19;108714;-74
2023/12/26 05:09:37;;;;;;;;;;;12.20;99.90;;;;;;7327133;19;109715;-73
2023/12/26 05:12:04;;;;;;;;;;;12.20;99.90;;;;;;7331372;19;110040;-73
2023/12/26 05:14:32;;;;;;;;;;;12.20;99.90;;;;;;7329724;19;108853;-73
2023/12/26 05:16:59;;;;;;;;;;;12.20;99.90;;;;;;7330082;19;109147;-73
2023/12/26 05:19:26;;;;;;;;;;;12.20;99.90;;;;;;7328130;19;110681;-73
2023/12/26 05:21:53;;;;;;;;;;;12.20;99.90;;;;;;7332346;19;110507;-72
2023/12/26 05:24:20;;;;;;;;;;;12.20;99.90;;;;;;7332208;19;110355;-73
2023/12/26 05:26:48;;;;;;;;;;;12.20;99.90;;;;;;7336835;19;108460;-73
2023/12/26 05:29:16;;;;;;;;;;;12.20;99.90;;;;;;7327285;19;112164;-73
2023/12/26 05:31:43;;;;;;;;;;;12.20;99.90;;;;;;7324257;19;108880;-73
2023/12/26 05:34:10;;;;;;;;;;;12.20;99.90;;;;;;7331130;19;110331;-73
2023/12/26 05:36:37;;;;;;;;;;;12.20;99.90;;;;;;7329395;19;109193;-73
2023/12/26 05:39:06;;;;;;;;;;;12.20;99.90;;;;;;7334842;19;109378;-73
2023/12/26 05:41:34;;;;;;;;;;;12.20;99.90;;;;;;7334398;19;110915;-72
2023/12/26 05:44:01;;;;;;;;;;;12.20;99.90;;;;;;7334399;19;109406;-73
2023/12/26 05:46:28;;;;;;;;;;;12.20;99.90;;;;;;7337561;19;109053;-73
2023/12/26 05:48:56;;;;;;;;;;;12.20;99.90;;;;;;7341034;19;108805;-78
2023/12/26 05:51:25;;;;;;;;;;;12.20;99.90;;;;;;7336621;19;108843;-76
2023/12/26 05:53:52;;;;;;;;;;;12.20;99.90;;;;;;7336722;19;108673;-77
2023/12/26 05:56:19;;;;;;;;;;;12.20;99.90;;;;;;7336946;19;110162;-78
2023/12/26 05:58:47;;;;;;;;;;;12.20;99.90;;;;;;7335768;19;108838;-78
2023/12/26 06:01:15;;;;;;;;;;;12.10;99.90;;;;;;7333471;19;110089;-77
2023/12/26 06:03:42;;;;;;;;;;;12.10;99.90;;;;;;7336555;19;109486;-75
2023/12/26 06:06:10;;;;;;;;;;;12.10;99.90;;;;;;7336893;19;108786;-77
2023/12/26 06:08:41;;;;;;;;;;;12.10;99.90;;;;;;7334997;19;108591;-80
2023/12/26 06:11:08;;;;;;;;;;;12.10;99.90;;;;;;7338700;19;109839;-77
2023/12/26 06:13:36;;;;;;;;;;;12.10;99.90;;;;;;7334895;19;110635;-75
2023/12/26 06:16:03;;;;;;;;;;;12.10;99.90;;;;;;7330456;19;109890;-73
2023/12/26 06:18:30;;;;;;;;;;;12.10;99.90;;;;;;7332470;19;108740;-72
2023/12/26 06:20:58;;;;;;;;;;;12.10;99.90;;;;;;7334371;19;110121;-73
2023/12/26 06:23:26;;;;;;;;;;;12.10;99.90;;;;;;7334703;19;113754;-73
2023/12/26 06:25:54;;;;;;;;;;;12.10;99.90;;;;;;7333592;19;109675;-73
2023/12/26 06:28:21;;;;;;;;;;;12.10;99.90;;;;;;7334687;19;108939;-73
2023/12/26 06:30:49;;;;;;;;;;;12.10;99.90;;;;;;7332089;19;109206;-73
2023/12/26 06:33:16;;;;;;;;;;;12.10;99.90;;;;;;7338626;19;108800;-73
2023/12/26 06:35:44;;;;;;;;;;;12.10;99.90;;;;;;7335068;19;109185;-71
2023/12/26 06:38:14;;;;;;;;;;;12.10;99.90;;;;;;7333806;19;109835;-73
2023/12/26 06:40:42;;;;;;;;;;;12.10;99.90;;;;;;7336261;19;110318;-73
2023/12/26 06:43:10;;;;;;;;;;;12.00;99.90;;;;;;7333663;19;109113;-73
2023/12/26 06:45:37;;;;;;;;;;;12.10;99.90;;;;;;7333576;19;109110;-73
2023/12/26 06:48:04;;;;;;;;;;;12.00;99.90;;;;;;7333107;19;109458;-71
2023/12/26 06:50:32;;;;;;;;;;;12.00;99.90;;;;;;7335885;19;110042;-73
2023/12/26 06:52:59;;;;;;;;;;;12.00;99.90;;;;;;7330530;19;109347;-72
2023/12/26 06:55:26;;;;;;;;;;;12.00;99.90;;;;;;7343150;19;108798;-70
2023/12/26 06:57:53;;;;;;;;;;;11.90;99.90;;;;;;7335028;19;109337;-69
2023/12/26 07:00:21;;;;;;;;;;;11.90;99.90;;;;;;7333513;19;109222;-69
2023/12/26 07:02:49;;;;;;;;;;;11.90;99.90;;;;;;7329298;19;109168;-69
2023/12/26 07:05:16;;;;;;;;;;;11.90;99.90;;;;;;7331593;19;109020;-69
2023/12/26 07:07:43;;;;;;;;;;;11.90;99.90;;;;;;7333876;19;108444;-69
2023/12/26 07:10:10;;;;;;;;;;;11.80;99.90;;;;;;7332943;19;109229;-69
2023/12/26 07:12:38;;;;;;;;;;;11.80;99.90;;;;;;7333436;19;108959;-69
2023/12/26 07:15:06;;;;;;;;;;;11.70;99.90;;;;;;7337495;19;108556;-68
2023/12/26 07:17:33;;;;;;;;;;;11.70;99.90;;;;;;7331953;19;109275;-68
2023/12/26 07:20:01;;;;;;;;;;;11.70;99.90;;;;;;7331384;19;111168;-69
2023/12/26 07:22:28;;;;;;;;;;;11.70;99.90;;;;;;7333538;19;109796;-69
2023/12/26 07:24:55;;;;;;;;;;;11.60;99.90;;;;;;7333285;19;111176;-69
2023/12/26 07:27:22;;;;;;;;;;;11.60;99.90;;;;;;7333085;19;109020;-70
2023/12/26 07:29:50;;;;;;;;;;;11.60;99.90;;;;;;7334111;19;109974;-69
2023/12/26 07:32:20;;;;;;;;;;;11.60;99.90;;;;;;7331008;19;110839;-69
2023/12/26 07:34:47;;;;;;;;;;;11.60;99.90;;;;;;7333395;19;109439;-68
2023/12/26 07:37:14;;;;;;;;;;;11.50;99.90;;;;;;7339220;19;110159;-69
2023/12/26 07:39:41;;;;;;;;;;;11.50;99.90;;;;;;7330956;19;108771;-70
2023/12/26 07:42:08;;;;;;;;;;;11.40;99.90;;;;;;7333565;19;109381;-69
2023/12/26 07:44:35;;;;;;;;;;;11.40;99.90;;;;;;7332729;19;108826;-69
2023/12/26 07:47:03;;;;;;;;;;;11.40;99.90;;;;;;7329582;19;110386;-69
2023/12/26 07:49:30;;;;;;;;;;;11.40;99.90;;;;;;7334517;19;110620;-69
2023/12/26 07:51:58;;;;;;;;;;;11.30;99.90;;;;;;7331919;19;108634;-77
2023/12/26 07:54:25;;;;;;;;;;;11.30;99.90;;;;;;7336681;19;110920;-74
2023/12/26 07:56:52;;;;;;;;;;;11.30;99.90;;;;;;7332374;19;109131;-78
2023/12/26 07:59:20;;;;;;;;;;;11.30;99.90;;;;;;7337450;19;109582;-73
2023/12/26 08:01:47;;;;;;;;;;;11.30;99.90;;;;;;7328931;19;109615;-75
2023/12/26 08:04:14;;;;;;;;;;;11.30;99.90;;;;;;7330692;19;109221;-69
2023/12/26 08:06:41;;;;;;;;;;;11.20;99.90;;;;;;7331990;19;109105;-69
2023/12/26 08:09:09;;;;;;;;;;;11.20;99.90;;;;;;7338932;19;109261;-91
2023/12/26 08:11:37;;;;;;;;;;;11.20;99.90;;;;;;7373332;19;108658;-91
2023/12/26 08:14:05;;;;;;;;;;;11.10;99.90;;;;;;7345483;19;110559;-69
2023/12/26 08:16:32;;;;;;;;;;;11.10;99.90;;;;;;7330685;19;109301;-68
2023/12/26 08:19:01;;;;;;;;;;;11.10;99.90;;;;;;7332683;19;108866;-69
2023/12/26 08:21:29;;;;;;;;;;;11.10;99.90;;;;;;7334438;19;109874;-69
2023/12/26 08:23:56;;;;;;;;;;;11.10;99.90;;;;;;7329855;19;108675;-69
2023/12/26 08:26:33;;;;;;;;;;;11.00;99.90;;;;;;7331836;19;109283;-69
2023/12/26 08:29:00;;;;;;;;;;;11.10;99.90;;;;;;7332321;19;111770;-69
2023/12/26 08:31:27;;;;;;;;;;;11.10;99.90;;;;;;7330331;19;111259;-68
2023/12/26 08:33:55;;;;;;;;;;;11.00;99.90;;;;;;7331319;19;109130;-70
2023/12/26 08:36:23;;;;;;;;;;;11.00;99.90;;;;;;7329782;19;109598;-69
2023/12/26 08:38:50;;;;;;;;;;;11.00;99.90;;;;;;7331245;19;110042;-70
2023/12/26 08:41:17;;;;;;;;;;;11.00;99.90;;;;;;7329461;19;109412;-69
2023/12/26 08:43:44;;;;;;;;;;;11.00;99.90;;;;;;7337050;19;110167;-69
2023/12/26 08:46:12;;;;;;;;;;;10.90;99.90;;;;;;7326186;19;109631;-69
2023/12/26 08:48:39;;;;;;;;;;;10.90;99.90;;;;;;7327746;19;110610;-69
2023/12/26 08:51:07;;;;;;;;;;;10.90;99.90;;;;;;7327557;19;110386;-69
2023/12/26 08:53:35;;;;;;;;;;;10.90;99.90;;;;;;7329616;19;109516;-68
2023/12/26 08:56:03;;;;;;;;;;;10.90;99.90;;;;;;7325173;19;109958;-69
2023/12/26 08:58:32;;;;;;;;;;;10.90;99.90;;;;;;7333343;19;108527;-69
2023/12/26 09:01:00;;;;;;;;;;;10.90;99.90;;;;;;7331491;19;109440;-69
2023/12/26 09:03:28;;;;;;;;;;;10.90;99.90;;;;;;7332201;19;112021;-69
2023/12/26 09:05:56;;;;;;;;;;;10.90;99.90;;;;;;7335752;19;109485;-68
2023/12/26 09:08:25;;;;;;;;;;;10.90;99.90;;;;;;7333355;19;110292;-68
2023/12/26 09:10:52;;;;;;;;;;;10.90;99.90;;;;;;7330078;19;109700;-69
2023/12/26 09:13:21;;;;;;;;;;;10.80;99.90;;;;;;7330872;19;110849;-71
2023/12/26 09:15:51;;;;;;;;;;;10.90;99.90;;;;;;7327450;19;110252;-68
2023/12/26 09:18:18;;;;;;;;;;;10.90;99.90;;;;;;7332918;19;108600;-69
2023/12/26 09:20:45;;;;;;;;;;;10.90;99.90;;;;;;7325878;19;110112;-69
2023/12/26 09:23:13;;;;;;;;;;;10.90;99.90;;;;;;7326062;19;111601;-69
2023/12/26 09:25:40;;;;;;;;;;;10.90;99.90;;;;;;7334450;19;113351;-68
2023/12/26 09:28:08;;;;;;;;;;;10.80;99.90;;;;;;7327048;19;109562;-70
2023/12/26 09:30:36;;;;;;;;;;;10.90;99.90;;;;;;7329852;19;109680;-69
2023/12/26 09:33:03;;;;;;;;;;;10.90;99.90;;;;;;7330888;19;109996;-69
2023/12/26 09:35:31;;;;;;;;;;;11.00;99.90;;;;;;7331352;19;110416;-69
2023/12/26 09:38:01;;;;;;;;;;;10.90;99.90;;;;;;7328990;19;109739;-69
2023/12/26 09:40:29;;;;;;;;;;;11.00;99.90;;;;;;7327509;19;108985;-68
2023/12/26 09:42:59;;;;;;;;;;;11.00;99.90;;;;;;7330741;19;109876;-69
2023/12/26 09:45:27;;;;;;;;;;;11.00;99.90;;;;;;7330416;19;110161;-69
2023/12/26 09:47:54;;;;;;;;;;;11.10;99.90;;;;;;7337348;19;109006;-69
2023/12/26 09:50:22;;;;;;;;;;;11.10;99.90;;;;;;7330606;19;108797;-69
2023/12/26 09:53:00;;;;;;;;;;;11.20;99.90;;;;;;7325814;19;108608;-69
2023/12/26 09:55:27;;;;;;;;;;;11.20;99.90;;;;;;7329269;19;110154;-68
2023/12/26 09:57:56;;;;;;;;;;;11.20;99.90;;;;;;7329167;19;109572;-68
2023/12/26 10:00:27;;;;;;;;;;;11.20;99.90;;;;;;7328656;19;108689;-69
2023/12/26 10:02:55;;;;;;;;;;;11.10;99.90;;;;;;7328276;19;109792;-69
2023/12/26 10:05:23;;;;;;;;;;;11.10;99.90;;;;;;7329341;19;109246;-69
2023/12/26 10:07:51;;;;;;;;;;;11.10;99.90;;;;;;7327545;19;110112;-69
2023/12/26 10:10:21;;;;;;;;;;;11.00;99.90;;;;;;7334827;19;110031;-69
2023/12/26 10:12:49;;;;;;;;;;;11.00;99.90;;;;;;7328232;19;110673;-69
2023/12/26 10:15:17;;;;;;;;;;;11.00;99.90;;;;;;7329752;19;109290;-69
2023/12/26 10:17:45;;;;;;;;;;;10.90;99.90;;;;;;7328503;19;108617;-69
2023/12/26 10:20:15;;;;;;;;;;;10.90;99.90;;;;;;7329334;19;108930;-69
2023/12/26 10:22:43;;;;;;;;;;;10.80;99.90;;;;;;7328659;19;110215;-69
2023/12/26 10:25:12;;;;;;;;;;;10.80;99.90;;;;;;7335481;19;109954;-69
2023/12/26 10:27:40;;;;;;;;;;;10.80;99.90;;;;;;7336965;19;110636;-69
2023/12/26 10:30:07;;;;;;;;;;;10.70;99.90;;;;;;7336013;19;109185;-69
2023/12/26 10:32:35;;;;;;;;;;;10.80;99.90;;;;;;7341199;19;108573;-69
2023/12/26 10:35:15;;;;;;;;;;;10.80;99.90;;;;;;7336328;19;110128;-72
2023/12/26 10:37:43;;;;;;;;;;;10.80;99.90;;;;;;7336024;19;109907;-71
2023/12/26 10:40:10;;;;;;;;;;;10.80;99.90;;;;;;7334336;19;108867;-75
2023/12/26 10:42:41;;;;;;;;;;;10.90;99.90;;;;;;7335538;19;109201;-71
2023/12/26 10:45:09;;;;;;;;;;;10.90;99.90;;;;;;7336179;19;108946;-74
2023/12/26 10:47:38;;;;;;;;;;;10.90;99.90;;;;;;7335396;19;109712;-78
2023/12/26 10:50:08;;;;;;;;;;;10.90;99.90;;;;;;7332284;19;109076;-74
2023/12/26 10:55:27;;;;;;;;;;;11.00;99.90;;;;;;7340550;19;108620;-68
2023/12/26 11:01:15;;;;;;;;;;;11.10;99.90;;;;;;7336057;19;108429;-69
2023/12/26 13:52:55;;;;;;;;;;;11.50;99.90;;;;;;7327884;19;108926;-71
2023/12/26 13:55:22;;;;;;;;;;;11.50;99.90;;;;;;7329989;19;108822;-72
2023/12/26 13:57:49;;;;;;;;;;;11.50;99.90;;;;;;7328106;19;110584;-71
2023/12/26 14:00:17;;;;;;;;;;;11.50;99.90;;;;;;7338186;19;108781;-72
2023/12/26 14:02:44;;;;;;;;;;;11.50;99.90;;;;;;7342265;19;109001;-72
2023/12/26 14:05:11;;;;;;;;;;;11.50;99.90;;;;;;7336841;19;110100;-71
2023/12/26 14:07:39;;;;;;;;;;;11.50;99.90;;;;;;7336543;19;110514;-72
2023/12/26 14:10:06;;;;;;;;;;;11.40;99.90;;;;;;7334920;19;109385;-70
2023/12/26 14:12:34;;;;;;;;;;;11.50;99.90;;;;;;7334840;19;110491;-71
2023/12/26 14:15:02;;;;;;;;;;;11.50;99.90;;;;;;7333860;19;108580;-71
2023/12/26 14:17:30;;;;;;;;;;;11.40;99.90;;;;;;7336090;19;110267;-72
2023/12/26 14:19:57;;;;;;;;;;;11.40;99.90;;;;;;7334406;19;108758;-72
2023/12/26 14:22:24;;;;;;;;;;;11.50;99.90;;;;;;7338924;19;109676;-72
2023/12/26 14:24:51;;;;;;;;;;;11.50;99.90;;;;;;7335860;19;108784;-71
2023/12/26 14:27:19;;;;;;;;;;;11.40;99.90;;;;;;7334350;19;109214;-70
2023/12/26 14:29:46;;;;;;;;;;;11.40;99.90;;;;;;7336623;19;109196;-71
2023/12/26 14:32:13;;;;;;;;;;;11.30;99.90;;;;;;7332910;19;109132;-71
2023/12/26 14:34:40;;;;;;;;;;;11.40;99.90;;;;;;7334621;19;109265;-71
2023/12/26 14:37:09;;;;;;;;;;;11.30;99.90;;;;;;7333710;19;109404;-70
2023/12/26 14:39:36;;;;;;;;;;;11.30;99.90;;;;;;7337039;19;109573;-70
2023/12/26 14:42:03;;;;;;;;;;;11.30;99.90;;;;;;7334951;19;109645;-70
2023/12/26 14:44:33;;;;;;;;;;;11.30;99.90;;;;;;7343801;19;110246;-70
2023/12/26 14:47:00;;;;;;;;;;;11.30;99.90;;;;;;7336499;19;109695;-71
2023/12/26 14:49:28;;;;;;;;;;;11.30;99.90;;;;;;7336288;19;109565;-72
2023/12/26 14:51:55;;;;;;;;;;;11.30;99.90;;;;;;7332894;19;111243;-65
2023/12/26 14:54:22;;;;;;;;;;;11.30;99.90;;;;;;7333751;19;108545;-67
2023/12/26 14:56:50;;;;;;;;;;;11.40;99.90;;;;;;7334249;19;109598;-66
2023/12/26 14:59:35;;;;;;;;;;;11.40;99.90;;;;;;7331847;19;109468;-66
2023/12/26 15:02:03;;;;;;;;;;;11.50;99.90;;;;;;7334454;19;109723;-66
2023/12/26 15:04:31;;;;;;;;;;;11.50;99.90;;;;;;7335022;19;109366;-66
2023/12/26 15:07:01;;;;;;;;;;;11.50;99.90;;;;;;7338223;19;108737;-74
2023/12/26 15:09:28;;;;;;;;;;;11.50;99.90;;;;;;7333910;19;111295;-67
2023/12/26 15:11:55;;;;;;;;;;;11.50;99.90;;;;;;7335990;19;109744;-66
2023/12/26 15:14:23;;;;;;;;;;;11.50;99.90;;;;;;7334286;19;109199;-70
2023/12/26 15:17:08;;;;;;;;;;;11.50;99.90;;;;;;7332505;19;109892;-72
2023/12/26 15:19:36;;;;;;;;;;;11.60;99.90;;;;;;7335490;19;108622;-71
2023/12/26 15:22:03;;;;;;;;;;;11.50;99.90;;;;;;7334870;19;109114;-70
2023/12/26 15:24:31;;;;;;;;;;;11.50;99.90;;;;;;7335650;19;109312;-71
2023/12/26 15:26:58;;;;;;;;;;;11.60;99.90;;;;;;7335611;19;108990;-66
2023/12/26 15:29:25;;;;;;;;;;;11.50;99.90;;;;;;7339269;19;110602;-66
2023/12/26 15:31:53;;;;;;;;;;;11.50;99.90;;;;;;7333704;19;109537;-66
2023/12/26 15:34:20;;;;;;;;;;;11.50;99.90;;;;;;7333817;19;108843;-65
2023/12/26 15:36:49;;;;;;;;;;;11.50;99.90;;;;;;7334923;19;109711;-66
2023/12/26 15:39:16;;;;;;;;;;;11.50;99.90;;;;;;7332845;19;108851;-66
2023/12/26 15:41:46;;;;;;;;;;;11.50;99.90;;;;;;7335280;19;109727;-66
2023/12/26 15:44:13;;;;;;;;;;;11.50;99.90;;;;;;7331345;19;110008;-66
2023/12/26 15:46:41;;;;;;;;;;;11.50;99.90;;;;;;7329523;19;111850;-66
2023/12/26 15:49:08;;;;;;;;;;;11.50;99.90;;;;;;7331970;19;109098;-66
2023/12/26 15:51:36;;;;;;;;;;;11.70;99.90;;;;;;7337206;19;110083;-67
2023/12/26 15:54:03;;;;;;;;;;;11.90;99.90;;;;;;7333102;19;108746;-66
2023/12/26 15:56:31;;;;;;;;;;;12.10;99.90;;;;;;7334025;19;110737;-66
2023/12/26 15:58:58;;;;;;;;;;;12.10;99.90;;;;;;7335568;19;109022;-66
2023/12/26 16:01:26;;;;;;;;;;;12.20;99.90;;;;;;7332186;19;109120;-66
2023/12/26 16:03:56;;;;;;;;;;;12.20;99.90;;;;;;7332790;19;111085;-66
2023/12/26 16:06:24;;;;;;;;;;;12.20;99.90;;;;;;7331295;19;109979;-66
2023/12/26 16:08:52;;;;;;;;;;;12.20;99.90;;;;;;7331744;19;108979;-64
2023/12/26 16:11:22;;;;;;;;;;;12.20;99.90;;;;;;7329533;19;109643;-65
2023/12/26 16:13:49;;;;;;;;;;;12.10;99.90;;;;;;7337898;19;108363;-66
2023/12/26 16:16:17;;;;;;;;;;;12.00;99.90;;;;;;7333111;19;109788;-66
2023/12/26 16:18:44;;;;;;;;;;;12.00;99.90;;;;;;7331207;19;108812;-66
2023/12/26 16:21:12;;;;;;;;;;;12.00;99.90;;;;;;7332565;19;109288;-66
2023/12/26 16:23:39;;;;;;;;;;;11.90;99.90;;;;;;7332831;19;109655;-66
2023/12/26 16:26:07;;;;;;;;;;;11.80;99.90;;;;;;7334759;19;109095;-66
2023/12/26 16:28:34;;;;;;;;;;;11.80;99.90;;;;;;7335605;19;109332;-66
2023/12/26 16:31:02;;;;;;;;;;;11.80;99.90;;;;;;7332272;19;109522;-66
2023/12/26 16:33:29;;;;;;;;;;;11.80;99.90;;;;;;7340637;19;108471;-66
2023/12/26 16:35:58;;;;;;;;;;;11.70;99.90;;;;;;7334315;19;110607;-66
2023/12/26 16:38:25;;;;;;;;;;;11.70;99.90;;;;;;7332723;19;108495;-66
2023/12/26 16:40:55;;;;;;;;;;;11.60;99.90;;;;;;7335252;19;110140;-66
2023/12/26 16:43:22;;;;;;;;;;;11.60;99.90;;;;;;7334183;19;110814;-66
2023/12/26 16:45:49;;;;;;;;;;;11.60;99.90;;;;;;7333046;19;109121;-66
2023/12/26 16:48:16;;;;;;;;;;;11.60;99.90;;;;;;7331254;19;110080;-66
2023/12/26 16:50:44;;;;;;;;;;;11.50;99.90;;;;;;7333893;19;110183;-66
2023/12/26 16:53:11;;;;;;;;;;;11.50;99.90;;;;;;7327934;19;110271;-66
2023/12/26 16:55:38;;;;;;;;;;;11.50;99.90;;;;;;7339141;19;110070;-66
2023/12/26 16:58:05;;;;;;;;;;;11.40;99.90;;;;;;7335193;19;108420;-66
2023/12/26 17:00:33;;;;;;;;;;;11.50;99.90;;;;;;7330507;19;109076;-66
2023/12/26 17:03:05;;;;;;;;;;;11.40;99.90;;;;;;7330709;19;109533;-66